Pearland, Texas
Current Conditions -  °F | °C
As of 6:02 PM on Friday 19 Dec 2014 (Local Time) from KLVJ Reporting Station
Overcast Overcast  
Wind Chill: 56°   Ceiling: 900
Heat Index: 56°   Visibility: 10mi
Dew Point: 54°   Wind: 9mph
Humidity: 93%   Direction: 30°NNE
Pressure: 30.05"   Gusts: NA
Location:  29.55°N, 95.26°W
Report Text: KLVJ 200002Z AUTO 03008KT 10SM BKN009 OVC022 13/12 A3005 RMK AO2 CIG 006V011 T01330122
Loading
Personal Weather Stations






























Interactive Weather Map New forecast layout! Learn more

10-Day Weather Forecast

Advertisements
Track Severe Weather on mobile